createdAt,value
2023-03-04T00:01:16.252Z,101735.88
2023-03-04T00:03:42.836Z,101711.47
2023-03-04T00:06:09.520Z,101733.44
2023-03-04T00:08:36.074Z,101729.06
2023-03-04T00:11:02.770Z,101736.44
2023-03-04T00:13:29.324Z,101730.59
2023-03-04T00:15:56.016Z,101724.97
2023-03-04T00:18:22.731Z,101691.44
2023-03-04T00:20:50.520Z,101713.06
2023-03-04T00:23:17.468Z,101684.03
2023-03-04T00:25:43.998Z,101722.19
2023-03-04T00:28:10.516Z,101730.00
2023-03-04T00:30:37.061Z,101725.69
2023-03-04T00:33:03.632Z,101728.47
2023-03-04T00:35:30.473Z,101682.19
2023-03-04T00:37:57.070Z,101724.84
2023-03-04T00:40:24.009Z,101680.94
2023-03-04T00:42:50.600Z,101682.59
2023-03-04T00:45:17.120Z,101714.44
2023-03-04T00:47:43.636Z,101682.41
2023-03-04T00:50:10.794Z,101714.22
2023-03-04T00:52:37.904Z,101663.59
2023-03-04T00:55:05.242Z,101690.97
2023-03-04T00:57:31.773Z,101712.50
2023-03-04T00:59:58.345Z,101713.31
2023-03-04T01:02:24.932Z,101703.09
2023-03-04T01:04:51.524Z,101549.63
2023-03-04T01:07:18.621Z,101712.19
2023-03-04T01:09:45.110Z,101681.91
2023-03-04T01:12:12.183Z,101707.41
2023-03-04T01:14:38.869Z,101704.34
2023-03-04T01:17:05.427Z,101685.69
2023-03-04T01:19:32.053Z,101714.06
2023-03-04T01:21:58.572Z,101707.09
2023-03-04T01:24:25.146Z,101707.78
2023-03-04T01:26:51.646Z,101679.09
2023-03-04T01:29:18.473Z,101695.25
2023-03-04T01:31:44.978Z,101692.22
2023-03-04T01:34:11.569Z,101692.94
2023-03-04T01:36:38.056Z,101692.41
2023-03-04T01:39:04.888Z,101651.38
2023-03-04T01:41:31.651Z,101683.97
2023-03-04T01:44:01.490Z,101672.69
2023-03-04T01:46:29.302Z,101675.41
2023-03-04T01:48:56.190Z,101665.25
2023-03-04T01:51:23.095Z,101655.75
2023-03-04T01:53:53.219Z,101686.06
2023-03-04T01:56:24.216Z,101674.28
2023-03-04T01:59:13.838Z,101676.94
2023-03-04T02:01:43.860Z,101677.91
2023-03-04T02:04:11.350Z,101671.88
2023-03-04T02:06:39.793Z,101625.66
2023-03-04T02:09:07.879Z,101672.00
2023-03-04T02:11:36.143Z,101670.53
2023-03-04T02:14:02.871Z,101667.56
2023-03-04T02:16:29.460Z,101626.47
2023-03-04T02:18:56.040Z,101640.13
2023-03-04T02:21:29.130Z,101669.81
2023-03-04T02:24:11.540Z,101636.38
2023-03-04T02:26:41.385Z,101622.44
2023-03-04T02:29:10.714Z,101643.38
2023-03-04T02:31:40.144Z,101594.81
2023-03-04T02:34:12.124Z,101613.25
2023-03-04T02:36:40.080Z,101668.88
2023-03-04T02:39:22.025Z,101654.31
2023-03-04T02:41:50.896Z,101651.13
2023-03-04T02:44:30.425Z,101650.31
2023-03-04T02:46:57.819Z,101634.72
2023-03-04T02:49:27.068Z,101652.06
2023-03-04T02:51:59.920Z,101646.19
2023-03-04T02:54:26.514Z,101619.38
2023-03-04T02:56:54.892Z,101643.09
2023-03-04T02:59:22.661Z,101613.97
2023-03-04T03:01:50.414Z,101636.13
2023-03-04T03:04:18.417Z,101624.03
2023-03-04T03:06:45.128Z,101619.66
2023-03-04T03:09:11.916Z,101603.69
2023-03-04T03:11:38.649Z,101633.47
2023-03-04T03:14:05.657Z,101626.94
2023-03-04T03:16:32.316Z,101630.50
2023-03-04T03:18:58.932Z,101610.81
2023-03-04T03:21:25.498Z,101624.13
2023-03-04T03:23:52.100Z,101621.50
2023-03-04T03:26:19.247Z,101599.09
2023-03-04T03:28:46.038Z,101601.25
2023-03-04T03:31:13.027Z,101589.75
2023-03-04T03:33:39.588Z,101590.22
2023-03-04T03:36:07.037Z,101593.41
2023-03-04T03:38:34.126Z,101574.69
2023-03-04T03:41:00.707Z,101580.16
2023-03-04T03:43:27.389Z,101596.72
2023-03-04T03:45:54.029Z,101586.16
2023-03-04T03:48:20.628Z,101597.66
2023-03-04T03:50:47.143Z,101589.59
2023-03-04T03:53:14.024Z,101561.94
2023-03-04T03:55:40.626Z,101577.78
2023-03-04T03:58:07.346Z,101615.03
2023-03-04T04:00:33.875Z,101614.31
2023-03-04T04:03:01.155Z,101620.69
2023-03-04T04:05:27.786Z,101610.03
2023-03-04T04:07:54.399Z,101586.19
2023-03-04T04:10:21.618Z,101552.63
2023-03-04T04:12:48.304Z,101537.16
2023-03-04T04:15:15.142Z,101608.09
2023-03-04T04:17:41.693Z,101611.88
2023-03-04T04:20:09.049Z,101590.81
2023-03-04T04:22:35.682Z,101600.78
2023-03-04T04:25:02.256Z,101583.72
2023-03-04T04:27:28.819Z,101603.88
2023-03-04T04:29:55.418Z,101604.22
2023-03-04T04:32:22.834Z,101587.88
2023-03-04T04:34:49.437Z,101575.00
2023-03-04T04:37:16.233Z,101587.59
2023-03-04T04:39:42.871Z,101584.34
2023-03-04T04:42:11.062Z,101610.66
2023-03-04T04:44:39.018Z,101609.47
2023-03-04T04:47:10.103Z,101594.19
2023-03-04T04:49:36.718Z,101603.31
2023-03-04T04:52:03.503Z,101589.16
2023-03-04T04:54:30.566Z,101592.97
2023-03-04T04:56:57.129Z,101572.44
2023-03-04T04:59:24.017Z,101594.66
2023-03-04T05:01:50.597Z,101598.44
2023-03-04T05:04:17.420Z,101616.97
2023-03-04T05:06:44.178Z,101615.41
2023-03-04T05:09:10.900Z,101589.88
2023-03-04T05:11:37.466Z,101609.94
2023-03-04T05:14:04.072Z,101594.03
2023-03-04T05:16:30.859Z,101596.97
2023-03-04T05:18:57.764Z,101611.69
2023-03-04T05:21:24.831Z,101615.81
2023-03-04T05:23:52.332Z,101615.50
2023-03-04T05:26:19.309Z,101568.16
2023-03-04T05:28:46.059Z,101595.22
2023-03-04T05:31:12.991Z,101545.78
2023-03-04T05:33:40.052Z,101599.56
2023-03-04T05:36:07.025Z,101579.34
2023-03-04T05:38:34.038Z,101605.28
2023-03-04T05:41:03.513Z,101567.81
2023-03-04T05:43:30.751Z,101607.13
2023-03-04T05:45:57.368Z,101602.81
2023-03-04T05:48:24.313Z,101579.69
2023-03-04T05:50:58.742Z,101566.31
2023-03-04T05:53:25.894Z,101572.06
2023-03-04T05:55:52.792Z,101607.63
2023-03-04T05:58:19.688Z,101614.59
2023-03-04T06:00:46.495Z,101613.38
2023-03-04T06:03:18.193Z,101607.00
2023-03-04T06:05:44.844Z,101605.63
2023-03-04T06:08:12.611Z,101613.69
2023-03-04T06:10:40.506Z,101612.59
2023-03-04T06:13:07.980Z,101610.88
2023-03-04T06:15:34.760Z,101608.69
2023-03-04T06:18:01.363Z,101607.16
2023-03-04T06:20:28.089Z,101587.13
2023-03-04T06:22:54.804Z,101625.19
2023-03-04T06:25:21.874Z,101614.16
2023-03-04T06:27:50.646Z,101640.75
2023-03-04T06:30:18.236Z,101623.59
2023-03-04T06:32:46.167Z,101638.84
2023-03-04T06:35:13.663Z,101634.25
2023-03-04T06:37:40.353Z,101642.63
2023-03-04T06:40:08.049Z,101639.63
2023-03-04T06:42:35.663Z,101606.25
2023-03-04T06:45:03.175Z,101635.78
2023-03-04T06:47:30.122Z,101643.56
2023-03-04T06:49:56.841Z,101628.78
2023-03-04T06:52:23.477Z,101635.34
2023-03-04T06:54:50.185Z,101593.16
2023-03-04T06:57:16.766Z,101616.78
2023-03-04T06:59:43.395Z,101634.97
2023-03-04T07:02:13.430Z,101652.97
2023-03-04T07:04:40.363Z,101653.63
2023-03-04T07:07:07.030Z,101601.88
2023-03-04T07:09:33.568Z,101651.59
2023-03-04T07:12:00.147Z,101644.59
2023-03-04T07:14:27.925Z,101653.63
2023-03-04T07:16:54.747Z,101662.38
2023-03-04T07:19:21.814Z,101650.50
2023-03-04T07:21:48.640Z,101652.22
2023-03-04T07:24:15.689Z,101652.53
2023-03-04T07:26:42.279Z,101656.06
2023-03-04T07:29:09.154Z,101645.91
2023-03-04T07:31:37.046Z,101649.78
2023-03-04T07:34:05.839Z,101653.47
2023-03-04T07:36:33.825Z,101662.13
2023-03-04T07:39:00.454Z,101670.13
2023-03-04T07:41:28.471Z,101623.97
2023-03-04T07:43:57.005Z,101635.28
2023-03-04T07:46:23.587Z,101646.47
2023-03-04T07:48:50.691Z,101636.97
2023-03-04T07:51:23.092Z,101666.28
2023-03-04T07:53:51.700Z,101658.25
2023-03-04T07:56:21.070Z,101660.16
2023-03-04T07:58:48.077Z,101653.56
2023-03-04T08:01:17.493Z,101658.66
2023-03-04T08:03:44.359Z,101637.03
2023-03-04T08:06:13.160Z,101656.56
2023-03-04T08:08:40.185Z,101667.34
2023-03-04T08:11:09.955Z,101656.06
2023-03-04T08:13:36.981Z,101651.72
2023-03-04T08:16:04.124Z,101651.25
2023-03-04T08:18:30.776Z,101635.13
2023-03-04T08:20:57.474Z,101650.06
2023-03-04T08:23:24.108Z,101627.75
2023-03-04T08:25:53.323Z,101630.84
2023-03-04T08:28:20.069Z,101646.56
2023-03-04T08:30:53.002Z,101654.84
2023-03-04T08:33:19.928Z,101632.06
2023-03-04T08:35:46.521Z,101643.91
2023-03-04T08:38:13.115Z,101602.16
2023-03-04T08:40:39.735Z,101627.00
2023-03-04T08:43:06.352Z,101631.09
2023-03-04T08:45:33.060Z,101631.06
2023-03-04T08:47:59.870Z,101638.53
2023-03-04T08:50:27.511Z,101605.19
2023-03-04T08:52:54.270Z,101641.06
2023-03-04T08:55:20.959Z,101596.41
2023-03-04T08:57:47.523Z,101612.06
2023-03-04T09:00:14.496Z,101638.81
2023-03-04T09:02:41.061Z,101614.72
2023-03-04T09:05:08.489Z,101649.78
2023-03-04T09:07:35.106Z,101623.22
2023-03-04T09:10:01.849Z,101643.41
2023-03-04T09:12:29.065Z,101589.25
2023-03-04T09:15:09.783Z,101645.84
2023-03-04T09:17:37.299Z,101645.91
2023-03-04T09:20:04.870Z,101635.06
2023-03-04T09:22:31.928Z,101631.25
2023-03-04T09:24:58.864Z,101630.03
2023-03-04T09:27:26.131Z,101632.94
2023-03-04T09:29:52.752Z,101642.28
2023-03-04T09:32:19.439Z,101614.72
2023-03-04T09:34:46.557Z,101646.00
2023-03-04T09:37:13.233Z,101622.69
2023-03-04T09:39:39.799Z,101636.31
2023-03-04T09:42:09.490Z,101625.97
2023-03-04T09:44:44.114Z,101639.19
2023-03-04T09:47:13.710Z,101631.34
2023-03-04T09:49:43.877Z,101598.22
2023-03-04T09:52:23.183Z,101632.53
2023-03-04T09:54:55.626Z,101612.09
2023-03-04T09:57:30.734Z,101634.88
2023-03-04T10:00:07.763Z,101627.94
2023-03-04T10:02:58.773Z,101636.47
2023-03-04T10:05:26.449Z,101637.16
2023-03-04T10:07:58.991Z,101622.66
2023-03-04T10:10:28.401Z,101614.84
2023-03-04T10:12:55.992Z,101620.44
2023-03-04T10:15:34.394Z,101626.38
2023-03-04T10:18:06.481Z,101635.03
2023-03-04T10:20:49.404Z,101613.06
2023-03-04T10:23:19.866Z,101619.28
2023-03-04T10:25:46.953Z,101613.75
2023-03-04T10:28:17.793Z,101622.75
2023-03-04T10:30:57.268Z,101630.13
2023-03-04T10:33:27.498Z,101626.97
2023-03-04T10:36:25.342Z,101626.13
2023-03-04T10:39:12.913Z,101618.81
2023-03-04T10:41:44.621Z,101622.09
2023-03-04T10:44:18.136Z,101619.38
2023-03-04T10:46:47.587Z,101611.66
2023-03-04T10:49:16.628Z,101622.28
2023-03-04T10:51:51.513Z,101615.69
2023-03-04T10:54:49.141Z,101613.06
2023-03-04T10:57:27.490Z,101591.97
2023-03-04T10:59:59.439Z,101616.41
2023-03-04T11:02:29.428Z,101610.25
2023-03-04T11:05:08.144Z,101620.38
2023-03-04T11:07:54.030Z,101581.66
2023-03-04T11:10:37.260Z,101613.59
2023-03-04T11:13:24.983Z,101607.84
2023-03-04T11:15:59.157Z,101609.50
2023-03-04T11:18:50.583Z,101573.91
2023-03-04T11:21:20.722Z,101579.50
2023-03-04T11:23:50.328Z,101568.22
2023-03-04T11:26:20.362Z,101591.22
2023-03-04T11:29:13.966Z,101575.53
2023-03-04T11:31:47.748Z,101560.47
2023-03-04T11:34:42.683Z,101590.59
2023-03-04T11:37:19.480Z,101589.69
2023-03-04T11:39:57.189Z,101585.47
2023-03-04T11:42:23.834Z,101570.56
2023-03-04T11:44:51.245Z,101574.81
2023-03-04T11:47:36.138Z,101575.25
2023-03-04T11:51:05.637Z,101570.41
2023-03-04T11:53:50.472Z,101568.34
2023-03-04T11:56:17.067Z,101569.28
2023-03-04T11:59:35.252Z,101578.69
2023-03-04T12:02:11.154Z,101566.44
2023-03-04T12:04:37.856Z,101562.03
2023-03-04T12:07:16.617Z,101561.34
2023-03-04T12:10:09.442Z,101524.22
2023-03-04T12:13:15.099Z,101559.31
2023-03-04T12:15:50.340Z,101532.59
2023-03-04T12:18:41.108Z,101550.44
2023-03-04T12:21:10.691Z,101539.97
2023-03-04T12:23:55.583Z,101535.25
2023-03-04T12:26:43.958Z,101506.13
2023-03-04T12:29:26.723Z,101506.19
2023-03-04T12:32:16.305Z,101529.66
2023-03-04T12:34:55.030Z,101523.28
2023-03-04T12:37:50.012Z,101520.94
2023-03-04T12:40:45.906Z,101519.38
2023-03-04T12:43:39.511Z,101494.75
2023-03-04T12:46:19.194Z,101512.78
2023-03-04T12:49:13.230Z,101515.41
2023-03-04T12:52:18.194Z,101508.44
2023-03-04T12:54:52.928Z,101479.44
2023-03-04T12:57:23.451Z,101503.53
2023-03-04T13:00:08.851Z,101497.00
2023-03-04T13:03:08.581Z,101494.59
2023-03-04T13:06:04.156Z,101497.81
2023-03-04T13:08:37.029Z,101496.47
2023-03-04T13:11:26.440Z,101491.88
2023-03-04T13:14:24.062Z,101461.47
2023-03-04T13:17:01.669Z,101493.13
2023-03-04T13:19:45.152Z,101491.56
2023-03-04T13:22:35.774Z,101477.63
2023-03-04T13:25:29.646Z,101493.28
2023-03-04T13:28:02.821Z,101487.13
2023-03-04T13:30:32.166Z,101488.50
2023-03-04T13:33:19.242Z,101486.28
2023-03-04T13:35:49.183Z,101335.16
2023-03-04T13:38:29.683Z,101408.13
2023-03-04T13:41:08.351Z,101474.66
2023-03-04T13:43:49.021Z,101455.91
2023-03-04T13:46:18.912Z,101474.50
2023-03-04T13:48:51.552Z,101472.25
2023-03-04T13:51:31.662Z,101472.72
2023-03-04T13:53:58.195Z,101468.09
2023-03-04T13:56:47.959Z,101450.88
2023-03-04T13:59:21.947Z,101434.59
2023-03-04T14:01:56.817Z,101477.56
2023-03-04T14:04:34.662Z,101464.19
2023-03-04T14:07:17.935Z,101457.78
2023-03-04T14:09:58.064Z,101443.28
2023-03-04T14:12:25.829Z,101464.41
2023-03-04T14:14:55.018Z,101453.34
2023-03-04T14:17:35.124Z,101463.31
2023-03-04T14:20:02.996Z,101453.91
2023-03-04T14:22:33.989Z,101437.88
2023-03-04T14:25:08.069Z,101435.50
2023-03-04T14:27:36.438Z,101434.31
2023-03-04T14:30:20.406Z,101433.97
2023-03-04T14:32:49.114Z,101400.41
2023-03-04T14:35:29.836Z,101428.00
2023-03-04T14:38:32.923Z,101433.72
2023-03-04T14:41:06.832Z,101408.31
2023-03-04T14:43:39.956Z,101422.44
2023-03-04T14:46:08.977Z,101403.94
2023-03-04T14:48:35.597Z,101398.72
2023-03-04T14:51:02.852Z,101399.41
2023-03-04T14:53:31.554Z,101397.47
2023-03-04T14:56:08.279Z,101391.13
2023-03-04T14:58:40.220Z,101413.72
2023-03-04T15:01:20.464Z,101412.91
2023-03-04T15:04:13.764Z,101413.53
2023-03-04T15:06:51.785Z,101387.03
2023-03-04T15:09:22.588Z,101398.63
2023-03-04T15:12:03.648Z,101385.97
2023-03-04T15:14:47.640Z,101395.22
2023-03-04T15:17:37.528Z,101388.53
2023-03-04T15:20:06.899Z,101398.75
2023-03-04T15:22:34.661Z,101391.09
2023-03-04T15:25:01.340Z,101386.94
2023-03-04T15:27:28.962Z,101379.34
2023-03-04T15:29:59.222Z,101361.31
2023-03-04T15:32:29.998Z,101373.91
2023-03-04T15:34:57.562Z,101364.59
2023-03-04T15:37:29.800Z,101380.69
2023-03-04T15:39:57.999Z,101346.50
2023-03-04T15:42:25.029Z,101393.66
2023-03-04T15:44:51.962Z,101395.34
2023-03-04T15:47:19.150Z,101364.91
2023-03-04T15:49:49.076Z,101372.09
2023-03-04T15:52:19.791Z,101400.56
2023-03-04T15:54:47.141Z,101402.31
2023-03-04T15:57:34.058Z,101401.25
2023-03-04T16:00:00.605Z,101381.72
2023-03-04T16:02:27.743Z,101356.31
2023-03-04T16:04:54.456Z,101398.03
2023-03-04T16:07:24.655Z,101398.81
2023-03-04T16:09:57.743Z,101395.81
2023-03-04T16:12:25.025Z,101396.00
2023-03-04T16:14:52.714Z,101395.97
2023-03-04T16:17:19.935Z,101395.06
2023-03-04T16:19:46.832Z,101370.66
2023-03-04T16:22:19.473Z,101390.53
2023-03-04T16:24:46.095Z,101390.16
2023-03-04T16:27:14.730Z,101382.38
2023-03-04T16:29:41.637Z,101365.19
2023-03-04T16:32:09.297Z,101393.41
2023-03-04T16:34:36.069Z,101392.00
2023-03-04T16:37:06.632Z,101383.56
2023-03-04T16:39:33.492Z,101359.13
2023-03-04T16:42:00.253Z,101381.44
2023-03-04T16:44:26.898Z,101399.69
2023-03-04T16:46:53.749Z,101403.50
2023-03-04T16:49:20.842Z,101391.03
2023-03-04T16:51:49.537Z,101358.94
2023-03-04T16:54:19.370Z,101399.72
2023-03-04T16:56:45.941Z,101322.69
2023-03-04T16:59:15.510Z,101395.09
2023-03-04T17:01:42.856Z,101394.75
2023-03-04T17:04:09.697Z,101368.28
2023-03-04T17:06:38.425Z,101352.81
2023-03-04T17:09:09.444Z,101400.19
2023-03-04T17:11:36.201Z,101406.28
2023-03-04T17:14:03.710Z,101396.22
2023-03-04T17:16:30.470Z,101401.44
2023-03-04T17:18:57.394Z,101394.50
2023-03-04T17:21:26.788Z,101404.94
2023-03-04T17:23:54.280Z,101387.25
2023-03-04T17:26:22.609Z,101407.13
2023-03-04T17:28:50.482Z,101407.56
2023-03-04T17:31:19.396Z,101405.38
2023-03-04T17:33:46.604Z,101396.38
2023-03-04T17:36:14.018Z,101403.50
2023-03-04T17:38:40.779Z,101417.00
2023-03-04T17:41:10.332Z,101392.19
2023-03-04T17:43:36.927Z,101385.78
2023-03-04T17:46:08.961Z,101424.47
2023-03-04T17:48:36.275Z,101426.09
2023-03-04T17:51:03.162Z,101390.06
2023-03-04T17:53:30.173Z,101426.75
2023-03-04T17:56:00.506Z,101432.88
2023-03-04T17:58:29.456Z,101438.16
2023-03-04T18:01:02.339Z,101405.34
2023-03-04T18:03:28.965Z,101431.50
2023-03-04T18:05:55.587Z,101427.28
2023-03-04T18:08:24.026Z,101420.25
2023-03-04T18:10:50.950Z,101417.81
2023-03-04T18:13:17.779Z,101444.44
2023-03-04T18:15:45.123Z,101434.19
2023-03-04T18:18:11.976Z,101412.66
2023-03-04T18:20:38.866Z,101397.69
2023-03-04T18:23:05.469Z,101425.25
2023-03-04T18:25:32.089Z,101422.81
2023-03-04T18:27:58.755Z,101426.69
2023-03-04T18:30:27.455Z,101422.78
2023-03-04T18:32:55.781Z,101410.44
2023-03-04T18:35:22.579Z,101402.44
2023-03-04T18:37:49.721Z,101426.94
2023-03-04T18:40:16.884Z,101411.41
2023-03-04T18:42:44.285Z,101402.91
2023-03-04T18:45:15.652Z,101394.50
2023-03-04T18:47:45.253Z,101397.78
2023-03-04T18:50:13.155Z,101401.19
2023-03-04T18:52:39.924Z,101403.84
2023-03-04T18:55:07.038Z,101408.47
2023-03-04T18:57:33.728Z,101385.44
2023-03-04T19:00:03.056Z,101402.44
2023-03-04T19:02:38.919Z,101388.44
2023-03-04T19:05:08.831Z,101391.25
2023-03-04T19:07:35.778Z,101423.84
2023-03-04T19:10:02.693Z,101409.38
2023-03-04T19:12:30.198Z,101423.53
2023-03-04T19:14:56.756Z,101414.06
2023-03-04T19:17:23.296Z,101406.72
2023-03-04T19:19:49.820Z,101423.94
2023-03-04T19:22:16.449Z,101406.94
2023-03-04T19:24:43.791Z,101435.88
2023-03-04T19:27:10.432Z,101416.16
2023-03-04T19:29:37.387Z,101451.63
2023-03-04T19:32:04.158Z,101456.50
2023-03-04T19:34:30.859Z,101447.38
2023-03-04T19:36:57.506Z,101439.19
2023-03-04T19:39:24.379Z,101448.47
2023-03-04T19:41:51.329Z,101411.28
2023-03-04T19:44:18.555Z,101455.25
2023-03-04T19:46:45.508Z,101457.53
2023-03-04T19:49:12.350Z,101438.81
2023-03-04T19:51:38.925Z,101425.63
2023-03-04T19:54:05.603Z,101441.22
2023-03-04T19:56:32.106Z,101455.72
2023-03-04T19:58:58.948Z,101460.34
2023-03-04T20:01:37.462Z,101460.81
2023-03-04T20:04:09.974Z,101457.75
2023-03-04T20:06:39.169Z,101460.78
2023-03-04T20:09:06.094Z,101461.03
2023-03-04T20:11:34.716Z,101452.38
2023-03-04T20:14:04.486Z,101448.09
2023-03-04T20:16:32.334Z,101461.44
2023-03-04T20:18:59.536Z,101460.88
2023-03-04T20:21:28.542Z,101396.50
2023-03-04T20:23:55.713Z,101459.31
2023-03-04T20:26:22.435Z,101455.41
2023-03-04T20:28:49.495Z,101447.03
2023-03-04T20:31:20.978Z,101443.97
2023-03-04T20:33:49.077Z,101418.38
2023-03-04T20:36:16.567Z,101443.22
2023-03-04T20:38:46.195Z,101459.22
2023-03-04T20:41:13.118Z,101416.66
2023-03-04T20:43:40.039Z,101463.16
2023-03-04T20:46:39.184Z,101332.03
2023-03-04T20:49:09.035Z,101456.38
2023-03-04T20:51:36.649Z,101427.19
2023-03-04T20:54:04.496Z,101457.69
2023-03-04T20:56:31.944Z,101460.09
2023-03-04T20:59:00.949Z,101457.59
2023-03-04T21:01:27.640Z,101458.22
2023-03-04T21:03:54.244Z,101462.63
2023-03-04T21:06:21.189Z,101460.06
2023-03-04T21:08:47.777Z,101440.03
2023-03-04T21:11:15.453Z,101399.63
2023-03-04T21:13:43.207Z,101463.25
2023-03-04T21:16:14.570Z,101418.63
2023-03-04T21:18:42.018Z,101454.09
2023-03-04T21:21:11.413Z,101414.03
2023-03-04T21:23:38.786Z,101418.81
2023-03-04T21:26:05.556Z,101442.72
2023-03-04T21:28:32.293Z,101443.53
2023-03-04T21:30:59.107Z,101443.44
2023-03-04T21:33:30.697Z,101434.31
2023-03-04T21:35:58.364Z,101413.53
2023-03-04T21:38:25.079Z,101438.38
2023-03-04T21:40:52.800Z,101433.72
2023-03-04T21:43:22.952Z,101429.84
2023-03-04T21:45:55.226Z,101443.88
2023-03-04T21:48:22.750Z,101405.66
2023-03-04T21:50:49.359Z,101431.81
2023-03-04T21:53:21.341Z,101435.31
2023-03-04T21:55:49.537Z,101402.66
2023-03-04T21:58:17.195Z,101426.84
2023-03-04T22:00:44.128Z,101395.25
2023-03-04T22:03:10.959Z,101429.53
2023-03-04T22:05:44.579Z,101415.91
2023-03-04T22:08:20.907Z,101425.41
2023-03-04T22:10:48.444Z,101401.78
2023-03-04T22:13:15.793Z,101398.84
2023-03-04T22:15:43.916Z,101420.38
2023-03-04T22:18:12.922Z,101418.19
2023-03-04T22:20:41.658Z,101388.75
2023-03-04T22:23:08.845Z,101412.38
2023-03-04T22:25:37.148Z,101410.03
2023-03-04T22:28:04.453Z,101404.81
2023-03-04T22:30:32.227Z,101379.94
2023-03-04T22:32:58.755Z,101407.59
2023-03-04T22:35:25.398Z,101404.38
2023-03-04T22:37:52.306Z,101379.91
2023-03-04T22:40:19.308Z,101372.28
2023-03-04T22:42:47.120Z,101364.78
2023-03-04T22:45:15.582Z,101396.38
2023-03-04T22:47:50.386Z,101399.63
2023-03-04T22:50:17.608Z,101399.44
2023-03-04T22:52:44.346Z,101393.50
2023-03-04T22:55:12.301Z,101378.63
2023-03-04T22:57:39.185Z,101392.44
2023-03-04T23:00:20.659Z,101374.16
2023-03-04T23:02:47.210Z,101374.56
2023-03-04T23:05:13.979Z,101384.34
2023-03-04T23:07:41.222Z,101379.97
2023-03-04T23:10:13.361Z,101376.41
2023-03-04T23:12:40.125Z,101371.78
2023-03-04T23:15:08.304Z,101352.75
2023-03-04T23:17:35.106Z,101372.88
2023-03-04T23:20:01.954Z,101356.59
2023-03-04T23:22:28.500Z,101379.44
2023-03-04T23:24:57.351Z,101345.28
2023-03-04T23:27:24.870Z,101342.69
2023-03-04T23:29:52.144Z,101370.34
2023-03-04T23:32:19.155Z,101359.66
2023-03-04T23:34:45.702Z,101351.00
2023-03-04T23:37:12.218Z,101352.25
2023-03-04T23:39:38.795Z,101339.69
2023-03-04T23:42:05.861Z,101373.19
2023-03-04T23:44:32.873Z,101351.97
2023-03-04T23:46:59.523Z,101331.78
2023-03-04T23:49:26.398Z,101306.31
2023-03-04T23:51:52.988Z,101338.84
2023-03-04T23:54:19.554Z,101333.53
2023-03-04T23:56:46.112Z,101310.88
2023-03-04T23:59:12.765Z,101359.91
